createdAt,value
2022-12-25T00:03:45.282Z,9.6
2022-12-25T00:08:45.267Z,9.6
2022-12-25T00:13:45.259Z,9.6
2022-12-25T00:18:45.217Z,9.6
2022-12-25T00:23:45.197Z,9.6
2022-12-25T00:28:45.237Z,9.6
2022-12-25T00:33:45.176Z,9.6
2022-12-25T00:38:45.201Z,9.6
2022-12-25T00:43:45.152Z,9.6
2022-12-25T00:48:45.123Z,9.6
2022-12-25T00:53:45.087Z,9.5
2022-12-25T00:58:45.084Z,9.5
2022-12-25T01:03:45.036Z,9.5
2022-12-25T01:08:45.021Z,9.5
2022-12-25T01:13:45.003Z,9.4
2022-12-25T01:18:44.994Z,9.4
2022-12-25T01:23:44.971Z,9.4
2022-12-25T01:28:44.945Z,9.4
2022-12-25T01:33:44.939Z,9.4
2022-12-25T01:38:44.908Z,9.4
2022-12-25T01:43:44.889Z,9.4
2022-12-25T01:48:44.884Z,9.3
2022-12-25T01:53:44.848Z,9.3
2022-12-25T01:58:44.832Z,9.4
2022-12-25T02:03:44.861Z,9.3
2022-12-25T02:08:44.797Z,9.3
2022-12-25T02:13:44.794Z,9.3
2022-12-25T02:18:44.755Z,9.3
2022-12-25T02:23:44.728Z,9.3
2022-12-25T02:28:44.719Z,9.4
2022-12-25T02:33:44.700Z,9.4
2022-12-25T02:38:44.692Z,9.5
2022-12-25T02:43:44.666Z,9.6
2022-12-25T02:48:44.638Z,9.6
2022-12-25T02:53:44.626Z,9.6
2022-12-25T02:58:44.598Z,9.6
2022-12-25T03:03:44.577Z,9.6
2022-12-25T03:08:44.557Z,9.6
2022-12-25T03:13:44.549Z,9.6
2022-12-25T03:18:44.528Z,9.6
2022-12-25T03:23:44.502Z,9.6
2022-12-25T03:28:44.480Z,9.6
2022-12-25T03:33:44.479Z,9.7
2022-12-25T03:38:44.480Z,9.7
2022-12-25T03:43:44.431Z,9.7
2022-12-25T03:48:44.411Z,9.7
2022-12-25T03:53:44.393Z,9.7
2022-12-25T03:58:44.367Z,9.7
2022-12-25T04:03:44.348Z,9.6
2022-12-25T04:08:44.326Z,9.6
2022-12-25T04:13:44.304Z,9.6
2022-12-25T04:18:44.281Z,9.7
2022-12-25T04:23:44.269Z,9.7
2022-12-25T04:28:44.252Z,9.7
2022-12-25T04:33:44.235Z,9.6
2022-12-25T04:38:44.215Z,9.6
2022-12-25T04:43:44.208Z,9.6
2022-12-25T04:48:44.164Z,9.6
2022-12-25T04:53:44.146Z,9.5
2022-12-25T04:58:44.143Z,9.5
2022-12-25T05:03:44.118Z,9.5
2022-12-25T05:08:44.097Z,9.5
2022-12-25T05:13:44.083Z,9.4
2022-12-25T05:18:44.053Z,9.4
2022-12-25T05:23:44.040Z,9.4
2022-12-25T05:28:44.024Z,9.4
2022-12-25T05:33:44.003Z,9.4
2022-12-25T05:38:43.983Z,9.4
2022-12-25T05:43:43.962Z,9.4
2022-12-25T05:48:43.936Z,9.4
2022-12-25T05:53:43.919Z,9.4
2022-12-25T05:58:43.887Z,9.4
2022-12-25T06:03:43.883Z,9.4
2022-12-25T06:08:43.853Z,9.4
2022-12-25T06:13:43.838Z,9.3
2022-12-25T06:18:43.825Z,9.3
2022-12-25T06:23:43.798Z,9.4
2022-12-25T06:28:43.779Z,9.4
2022-12-25T06:33:43.766Z,9.4
2022-12-25T06:38:43.746Z,9.4
2022-12-25T06:43:43.730Z,9.4
2022-12-25T06:48:43.711Z,9.4
2022-12-25T06:53:43.693Z,9.3
2022-12-25T06:58:43.672Z,9.3
2022-12-25T07:03:43.651Z,9.3
2022-12-25T07:08:43.627Z,9.3
2022-12-25T07:13:43.617Z,9.3
2022-12-25T07:18:43.582Z,9.4
2022-12-25T07:23:43.739Z,9.4
2022-12-25T07:28:43.545Z,9.5
2022-12-25T07:33:43.551Z,9.4
2022-12-25T07:38:43.510Z,9.4
2022-12-25T07:43:43.481Z,9.4
2022-12-25T07:48:43.468Z,9.3
2022-12-25T07:53:43.502Z,9.3
2022-12-25T07:58:43.522Z,9.3
2022-12-25T08:03:43.580Z,9.3
2022-12-25T08:08:43.394Z,9.3
2022-12-25T08:13:43.390Z,9.3
2022-12-25T08:18:43.396Z,9.4
2022-12-25T08:23:43.432Z,9.5
2022-12-25T08:28:43.410Z,9.6
2022-12-25T08:33:43.291Z,9.7
2022-12-25T08:38:43.361Z,9.7
2022-12-25T08:43:43.294Z,9.8
2022-12-25T08:48:43.234Z,9.8
2022-12-25T08:53:43.277Z,9.9
2022-12-25T08:58:43.192Z,9.9
2022-12-25T09:03:43.304Z,9.9
2022-12-25T09:08:43.166Z,10
2022-12-25T09:13:43.173Z,10
2022-12-25T09:18:43.323Z,10.1
2022-12-25T09:23:43.099Z,10.2
2022-12-25T09:28:43.148Z,10.2
2022-12-25T09:33:43.071Z,10.3
2022-12-25T09:43:43.017Z,10.6
2022-12-25T09:48:43.000Z,10.7
2022-12-25T09:53:43.001Z,11
2022-12-25T09:58:43.066Z,11.2
2022-12-25T10:03:42.984Z,11.3
2022-12-25T10:08:42.993Z,11.5
2022-12-25T10:13:42.898Z,11.7
2022-12-25T10:18:42.882Z,11.8
2022-12-25T10:23:42.995Z,11.8
2022-12-25T10:28:42.839Z,12
2022-12-25T10:33:42.814Z,12.3
2022-12-25T10:38:42.853Z,12.3
2022-12-25T10:43:42.811Z,12.3
2022-12-25T10:48:42.757Z,12.3
2022-12-25T10:53:42.788Z,12.3
2022-12-25T10:58:42.723Z,12.3
2022-12-25T11:03:42.729Z,12.3
2022-12-25T11:08:42.672Z,12.4
2022-12-25T11:13:42.723Z,12.5
2022-12-25T11:18:42.691Z,12.6
2022-12-25T11:23:42.638Z,12.6
2022-12-25T11:28:42.588Z,12.6
2022-12-25T11:33:42.640Z,12.5
2022-12-25T11:38:42.721Z,12.6
2022-12-25T11:43:42.535Z,12.6
2022-12-25T11:48:42.573Z,12.6
2022-12-25T11:53:42.558Z,12.7
2022-12-25T11:58:42.509Z,12.8
2022-12-25T12:03:42.560Z,12.8
2022-12-25T12:08:42.435Z,12.8
2022-12-25T12:18:42.408Z,12.7
2022-12-25T12:23:42.365Z,12.6
2022-12-25T12:28:42.354Z,12.6
2022-12-25T12:33:42.347Z,12.6
2022-12-25T12:38:42.373Z,12.6
2022-12-25T12:43:42.350Z,12.6
2022-12-25T12:48:42.282Z,12.6
2022-12-25T12:53:42.265Z,12.6
2022-12-25T12:58:42.229Z,12.5
2022-12-25T13:03:42.213Z,12.5
2022-12-25T13:08:42.194Z,12.6
2022-12-25T13:13:42.168Z,12.7
2022-12-25T13:18:42.218Z,12.6
2022-12-25T13:23:42.181Z,12.7
2022-12-25T13:28:42.219Z,12.7
2022-12-25T13:33:42.082Z,12.7
2022-12-25T13:38:42.111Z,12.7
2022-12-25T13:43:42.057Z,12.7
2022-12-25T13:48:42.029Z,12.6
2022-12-25T13:53:42.087Z,12.7
2022-12-25T13:58:42.027Z,12.5
2022-12-25T14:03:42.047Z,12.5
2022-12-25T14:08:41.947Z,12.5
2022-12-25T14:13:41.938Z,12.6
2022-12-25T14:18:41.909Z,12.5
2022-12-25T14:23:41.939Z,12.5
2022-12-25T14:28:41.864Z,12.4
2022-12-25T14:33:41.846Z,12.4
2022-12-25T14:38:41.848Z,12.3
2022-12-25T14:43:41.924Z,12.3
2022-12-25T14:48:41.886Z,12.4
2022-12-25T14:53:41.778Z,12.3
2022-12-25T14:58:41.856Z,12.3
2022-12-25T15:03:41.805Z,12.2
2022-12-25T15:08:41.765Z,12.1
2022-12-25T15:13:41.694Z,12
2022-12-25T15:18:41.698Z,11.9
2022-12-25T15:23:41.745Z,11.8
2022-12-25T15:28:41.619Z,11.6
2022-12-25T15:33:41.627Z,11.4
2022-12-25T15:38:41.586Z,11.4
2022-12-25T15:43:41.606Z,11.3
2022-12-25T15:48:41.616Z,11.6
2022-12-25T15:53:41.522Z,11.7
2022-12-25T15:58:41.538Z,11.8
2022-12-25T16:03:41.487Z,12
2022-12-25T16:08:41.479Z,12.1
2022-12-25T16:13:41.440Z,12.3
2022-12-25T16:18:41.463Z,12.4
2022-12-25T16:23:41.413Z,12.3
2022-12-25T16:28:41.382Z,12.5
2022-12-25T16:33:41.362Z,12.6
2022-12-25T16:38:41.338Z,12.7
2022-12-25T16:43:41.315Z,12.8
2022-12-25T16:48:41.312Z,12.9
2022-12-25T16:53:41.391Z,13
2022-12-25T16:58:41.303Z,13.1
2022-12-25T17:03:41.239Z,13.1
2022-12-25T17:08:41.225Z,13.2
2022-12-25T17:13:41.194Z,13.2
2022-12-25T17:18:41.182Z,13.2
2022-12-25T17:23:41.166Z,13.3
2022-12-25T17:28:41.154Z,13.3
2022-12-25T17:33:41.115Z,13.3
2022-12-25T17:38:41.090Z,13.3
2022-12-25T17:43:41.068Z,13.2
2022-12-25T17:48:41.135Z,13.2
2022-12-25T17:53:41.065Z,13.2
2022-12-25T17:58:41.055Z,13.3
2022-12-25T18:03:40.995Z,13.2
2022-12-25T18:08:40.994Z,13.2
2022-12-25T18:13:40.958Z,13.2
2022-12-25T18:18:40.929Z,13.1
2022-12-25T18:23:40.906Z,13
2022-12-25T18:28:40.890Z,13
2022-12-25T18:33:40.872Z,12.9
2022-12-25T18:38:40.853Z,12.8
2022-12-25T18:43:40.840Z,12.9
2022-12-25T18:48:40.821Z,12.8
2022-12-25T18:53:40.846Z,12.8
2022-12-25T18:58:40.771Z,12.8
2022-12-25T19:03:40.751Z,12.8
2022-12-25T19:08:40.728Z,12.8
2022-12-25T19:13:40.702Z,12.6
2022-12-25T19:18:40.701Z,12.6
2022-12-25T19:23:40.761Z,12.6
2022-12-25T19:28:40.648Z,12.7
2022-12-25T19:33:40.628Z,12.7
2022-12-25T19:38:40.611Z,12.7
2022-12-25T19:43:40.648Z,12.7
2022-12-25T19:48:40.568Z,12.7
2022-12-25T19:53:40.542Z,12.8
2022-12-25T19:58:40.527Z,12.7
2022-12-25T20:03:40.505Z,12.7
2022-12-25T20:08:40.537Z,12.6
2022-12-25T20:13:40.464Z,12.5
2022-12-25T20:18:40.445Z,12.2
2022-12-25T20:23:40.537Z,12.1
2022-12-25T20:28:40.528Z,11.8
2022-12-25T20:33:40.519Z,11.6
2022-12-25T20:38:40.369Z,11.5
2022-12-25T20:43:40.448Z,11.4
2022-12-25T20:48:40.361Z,11.4
2022-12-25T20:53:40.367Z,11.4
2022-12-25T20:58:40.284Z,11.3
2022-12-25T21:03:40.375Z,11.2
2022-12-25T21:08:40.279Z,11.2
2022-12-25T21:13:40.247Z,11.1
2022-12-25T21:18:40.334Z,11
2022-12-25T21:23:40.200Z,10.9
2022-12-25T21:28:40.155Z,10.8
2022-12-25T21:33:40.153Z,10.7
2022-12-25T21:38:40.127Z,10.8
2022-12-25T21:43:40.104Z,10.9
2022-12-25T21:48:40.091Z,10.9
2022-12-25T21:53:40.091Z,10.9
2022-12-25T21:58:40.052Z,10.9
2022-12-25T22:03:40.044Z,10.9
2022-12-25T22:08:40.026Z,10.9
2022-12-25T22:13:39.997Z,10.8
2022-12-25T22:18:39.974Z,10.7
2022-12-25T22:23:39.948Z,10.5
2022-12-25T22:28:39.933Z,10.6
2022-12-25T22:33:39.912Z,10.6
2022-12-25T22:38:39.894Z,10.7
2022-12-25T22:43:39.875Z,10.7
2022-12-25T22:48:39.855Z,10.7
2022-12-25T22:53:39.827Z,10.7
2022-12-25T22:58:39.804Z,10.6
2022-12-25T23:03:39.804Z,10.4
2022-12-25T23:08:39.777Z,10.1
2022-12-25T23:13:39.747Z,10
2022-12-25T23:18:39.725Z,9.8
2022-12-25T23:23:39.730Z,9.7
2022-12-25T23:28:39.695Z,9.7
2022-12-25T23:33:39.672Z,9.7
2022-12-25T23:38:39.653Z,9.7
2022-12-25T23:43:39.643Z,9.7
2022-12-25T23:48:39.607Z,9.7
2022-12-25T23:53:39.598Z,9.7
2022-12-25T23:58:39.575Z,9.8
